Aérodrome :
LOGIN :

S'inscrire | Disclaimer

   EN    FR    IT 

 










Légende :    VFR   VFR Marginal   IFR   IFR Intensif   IFR Très Intensif
Visi : 
Plafond : 
>= 8 km
>= 3000ft
5 à 8 km
1000 à 3000 ft
1500m à 5 km
500 à 1000 ft
800 à 1500m
200 à 500 ft
< 800m
< 200 ft
Symboles :   Orages  Brouillard  Fortes neiges  Fortes précipitations  Vent > 20 kt
SIGMETs :   Divers  Orages  Givrage  Turbulence  Onde Orograph.  Cendres Volcan.






- Altitude de l'aérodrome : 151 ft
- Code IATA : PES


ULPB - Petrozavodsk

DERNIER METAR :
  • 021300Z AUTO 20004MPS 150V230 9999 -SN ///033/// 01/M04 Q0989 RMK QFE738/0984

METARs EXPIRÉS :
  • 021200Z AUTO 21004MPS 150V240 9999 // ///038/// 02/M06 Q0990 RMK QFE738/0985
  • 021100Z AUTO 23005MPS 210V290 9999 // ///041/// 02/M07 Q0990 RMK QFE739/0985

TAF TAF ULPB
Valide du 02 à 12h jusqu'au 02 à 21h UTC


021059Z 0212/0221 19006G12MPS 9999 BKN011 BKN020
TEMPO 0212/0218 3100 -SHSN BR BKN011 BKN020CB
TEMPO 0218/0221 20008G14MPS 3100 -SHSNRA BKN011 BKN020CB



MET'MAP, la Météo Aéronautique d'un coup d'oeil ! - Copyright ORBIFLY Décembre 2007 - Disclaimer

ORBIFLY MET'MAP TEAM :

Programmation & Développement : Alexandra Zaïnal
Sur une idée originale de : Baudouin d'Aumeries
Assistance à la programmation : Marc-Olivier Méhu
Soutien technique & logistique : Manuel Goepfert

Contact : metmap@orbifly.com




SOURCES & CREDITS :

   NOAA